Time;durP1;ratioP1;P1;durP2;ratioP2;P2;SDS_P1;SDS_P2;PMS_P1;PMS_P2;Temp;Humidity;BMP_temperature;BMP_pressure;BME280_temperature;BME280_humidity;BME280_pressure;Samples;Min_cycle;Max_cycle;Signal;HPM_P1;HPM_P2
2022/04/13 00:00:13;;;;;;;1.52;1.40;;;;;;;;;;5042502;28;20192;-84
2022/04/13 00:02:40;;;;;;;3.40;1.45;;;;;;;;;;5058343;28;20179;-84
2022/04/13 00:05:06;;;;;;;1.83;1.50;;;;;;;;;;5058465;28;20193;-84
2022/04/13 00:07:32;;;;;;;1.73;1.42;;;;;;;;;;5049567;28;20180;-84
2022/04/13 00:09:58;;;;;;;2.58;1.45;;;;;;;;;;5041863;28;20197;-84
2022/04/13 00:12:24;;;;;;;3.30;1.47;;;;;;;;;;5042455;28;20194;-84
2022/04/13 00:14:50;;;;;;;1.70;1.37;;;;;;;;;;5041584;28;20481;-83
2022/04/13 00:17:16;;;;;;;4.70;1.88;;;;;;;;;;5022586;28;20631;-83
2022/04/13 00:19:43;;;;;;;2.17;1.52;;;;;;;;;;5026528;28;20254;-83
2022/04/13 00:22:08;;;;;;;2.92;1.20;;;;;;;;;;5024390;28;20178;-83
2022/04/13 00:24:37;;;;;;;4.20;1.47;;;;;;;;;;5030074;28;20218;-84
2022/04/13 00:27:03;;;;;;;1.50;1.20;;;;;;;;;;5024427;28;20557;-83
2022/04/13 00:29:30;;;;;;;2.45;1.38;;;;;;;;;;5022530;28;20308;-84
2022/04/13 00:31:58;;;;;;;4.00;2.50;;;;;;;;;;5007392;28;20177;-83
2022/04/13 00:34:24;;;;;;;1.83;1.40;;;;;;;;;;5022321;28;20198;-84
2022/04/13 00:36:50;;;;;;;3.15;1.30;;;;;;;;;;5021209;28;20180;-83
2022/04/13 00:39:16;;;;;;;4.43;1.40;;;;;;;;;;5037294;28;20202;-84
2022/04/13 00:41:42;;;;;;;3.17;1.97;;;;;;;;;;5013086;28;20171;-84
2022/04/13 00:44:09;;;;;;;2.50;1.40;;;;;;;;;;5022913;28;20434;-84
2022/04/13 00:46:35;;;;;;;3.05;1.50;;;;;;;;;;5025639;28;20417;-84
2022/04/13 00:49:01;;;;;;;4.55;1.73;;;;;;;;;;5022275;28;20183;-83
2022/04/13 00:51:28;;;;;;;3.97;3.33;;;;;;;;;;5034863;28;20178;-84
2022/04/13 00:53:55;;;;;;;1.80;1.48;;;;;;;;;;5021879;28;20193;-84
2022/04/13 00:56:24;;;;;;;1.50;1.17;;;;;;;;;;5037384;28;20207;-83
2022/04/13 00:58:53;;;;;;;3.42;1.40;;;;;;;;;;5023548;28;20176;-83
2022/04/13 01:01:19;;;;;;;2.22;1.48;;;;;;;;;;5023496;28;20171;-84
2022/04/13 01:03:45;;;;;;;2.13;1.50;;;;;;;;;;5021998;28;20218;-84
2022/04/13 01:06:12;;;;;;;6.05;1.92;;;;;;;;;;5032373;28;20551;-83
2022/04/13 01:08:38;;;;;;;1.95;1.50;;;;;;;;;;5019697;28;20187;-84
2022/04/13 01:11:04;;;;;;;2.45;1.67;;;;;;;;;;5021908;28;20206;-83
2022/04/13 01:13:30;;;;;;;2.38;1.30;;;;;;;;;;5026080;28;20233;-84
2022/04/13 01:15:56;;;;;;;2.85;1.30;;;;;;;;;;5041503;28;20218;-83
2022/04/13 01:18:22;;;;;;;5.37;1.90;;;;;;;;;;5041073;28;20193;-84
2022/04/13 01:20:52;;;;;;;2.35;1.67;;;;;;;;;;5041362;28;20433;-84
2022/04/13 01:23:18;;;;;;;3.40;1.65;;;;;;;;;;5041723;28;20182;-84
2022/04/13 01:25:48;;;;;;;5.50;1.73;;;;;;;;;;5055795;28;20221;-83
2022/04/13 01:28:14;;;;;;;3.95;1.70;;;;;;;;;;5033517;28;20437;-84
2022/04/13 01:30:40;;;;;;;7.63;2.70;;;;;;;;;;5034217;28;20229;-83
2022/04/13 01:33:06;;;;;;;2.88;1.90;;;;;;;;;;5040447;28;20495;-84
2022/04/13 01:35:32;;;;;;;2.45;1.70;;;;;;;;;;5040610;28;20203;-84
2022/04/13 01:37:58;;;;;;;2.63;2.08;;;;;;;;;;5042633;28;20245;-84
2022/04/13 01:40:24;;;;;;;3.10;1.40;;;;;;;;;;5052323;28;20178;-83
2022/04/13 01:42:50;;;;;;;3.90;3.30;;;;;;;;;;5053523;28;20539;-84
2022/04/13 01:45:19;;;;;;;3.23;2.07;;;;;;;;;;5056592;28;20440;-84
2022/04/13 01:47:49;;;;;;;2.42;1.60;;;;;;;;;;5032280;28;20491;-84
2022/04/13 01:50:19;;;;;;;2.28;1.80;;;;;;;;;;5047246;28;20189;-83
2022/04/13 01:52:46;;;;;;;1.88;1.63;;;;;;;;;;5059463;28;20203;-84
2022/04/13 01:55:12;;;;;;;3.10;1.60;;;;;;;;;;5041110;28;20202;-84
2022/04/13 01:57:39;;;;;;;2.90;1.88;;;;;;;;;;5055476;28;20428;-83
2022/04/13 02:00:06;;;;;;;2.45;1.65;;;;;;;;;;5040634;28;20236;-84
2022/04/13 02:02:32;;;;;;;3.05;1.70;;;;;;;;;;5040894;28;20265;-83
2022/04/13 02:04:59;;;;;;;1.52;1.30;;;;;;;;;;5047546;28;20183;-83
2022/04/13 02:07:26;;;;;;;5.43;1.80;;;;;;;;;;5057602;28;20181;-84
2022/04/13 02:09:52;;;;;;;3.13;1.48;;;;;;;;;;5040000;28;20182;-83
2022/04/13 02:12:18;;;;;;;2.50;2.30;;;;;;;;;;5038992;28;20243;-83
2022/04/13 02:14:44;;;;;;;7.50;2.00;;;;;;;;;;5055651;28;20670;-84
2022/04/13 02:17:14;;;;;;;2.55;1.65;;;;;;;;;;5040321;28;20448;-83
2022/04/13 02:19:41;;;;;;;3.53;1.98;;;;;;;;;;5072134;28;20174;-82
2022/04/13 02:22:08;;;;;;;1.75;1.60;;;;;;;;;;5040355;28;20196;-83
2022/04/13 02:24:34;;;;;;;5.22;2.10;;;;;;;;;;5041766;28;20185;-83
2022/04/13 02:27:01;;;;;;;4.75;1.80;;;;;;;;;;5040123;28;20205;-83
2022/04/13 02:29:27;;;;;;;5.82;2.13;;;;;;;;;;5038979;28;20552;-82
2022/04/13 02:31:53;;;;;;;4.10;1.80;;;;;;;;;;5042900;28;20201;-81
2022/04/13 02:34:19;;;;;;;2.80;1.70;;;;;;;;;;5041238;28;20431;-82
2022/04/13 02:36:45;;;;;;;4.80;2.20;;;;;;;;;;5071314;28;20437;-82
2022/04/13 02:39:11;;;;;;;2.70;2.37;;;;;;;;;;5053771;28;20222;-84
2022/04/13 02:41:37;;;;;;;1.63;1.50;;;;;;;;;;5038701;28;20445;-85
2022/04/13 02:44:03;;;;;;;5.13;2.20;;;;;;;;;;5057093;28;20522;-84
2022/04/13 02:46:29;;;;;;;2.65;1.90;;;;;;;;;;5042586;28;20185;-87
2022/04/13 02:48:55;;;;;;;2.67;1.98;;;;;;;;;;5069537;28;20236;-87
2022/04/13 02:51:21;;;;;;;9.73;2.30;;;;;;;;;;5065860;28;20271;-90
2022/04/13 02:53:47;;;;;;;3.22;1.95;;;;;;;;;;5039439;28;20449;-92
2022/04/13 02:56:13;;;;;;;5.03;2.53;;;;;;;;;;5072947;28;20212;-90
2022/04/13 02:58:39;;;;;;;2.35;2.08;;;;;;;;;;5075868;28;20317;-88
2022/04/13 03:01:06;;;;;;;4.93;2.50;;;;;;;;;;5074101;28;20197;-89
2022/04/13 03:03:32;;;;;;;6.28;2.83;;;;;;;;;;5059151;28;20191;-90
2022/04/13 03:05:58;;;;;;;5.13;2.22;;;;;;;;;;5059661;28;20646;-90
2022/04/13 03:08:25;;;;;;;4.47;2.50;;;;;;;;;;5076200;28;20197;-89
2022/04/13 03:10:51;;;;;;;4.80;2.17;;;;;;;;;;5045138;28;20185;-87
2022/04/13 03:13:17;;;;;;;7.00;2.42;;;;;;;;;;5045534;28;20170;-88
2022/04/13 03:15:43;;;;;;;5.47;2.50;;;;;;;;;;5045556;28;20206;-88
2022/04/13 03:18:09;;;;;;;3.80;2.30;;;;;;;;;;5075898;28;20289;-88
2022/04/13 03:20:35;;;;;;;2.45;2.05;;;;;;;;;;5043973;28;20443;-87
2022/04/13 03:23:01;;;;;;;2.47;2.23;;;;;;;;;;5044756;28;20181;-88
2022/04/13 03:25:27;;;;;;;3.60;2.40;;;;;;;;;;5045585;28;20423;-87
2022/04/13 03:27:54;;;;;;;6.47;3.20;;;;;;;;;;5043785;28;20189;-87
2022/04/13 03:30:21;;;;;;;3.97;2.95;;;;;;;;;;5043426;28;20458;-85
2022/04/13 03:32:47;;;;;;;4.55;2.95;;;;;;;;;;5042854;28;20178;-86
2022/04/13 03:35:13;;;;;;;2.87;2.57;;;;;;;;;;5043232;28;20233;-87
2022/04/13 03:37:40;;;;;;;3.20;2.55;;;;;;;;;;5047109;28;20504;-87
2022/04/13 03:40:07;;;;;;;7.03;2.88;;;;;;;;;;5074385;28;20189;-83
2022/04/13 03:42:33;;;;;;;4.50;2.55;;;;;;;;;;5044045;28;20194;-84
2022/04/13 03:45:02;;;;;;;3.50;2.42;;;;;;;;;;5043357;28;20189;-84
2022/04/13 03:47:28;;;;;;;3.95;2.88;;;;;;;;;;5042319;28;20626;-83
2022/04/13 03:49:53;;;;;;;7.20;2.70;;;;;;;;;;5060401;28;20189;-83
2022/04/13 03:52:19;;;;;;;3.67;2.67;;;;;;;;;;5044013;28;20530;-82
2022/04/13 03:54:45;;;;;;;3.20;2.90;;;;;;;;;;5075468;28;20464;-83
2022/04/13 03:57:12;;;;;;;8.88;3.17;;;;;;;;;;5042930;28;20433;-82
2022/04/13 03:59:38;;;;;;;5.43;3.10;;;;;;;;;;5042775;28;20180;-83
2022/04/13 04:02:04;;;;;;;6.00;3.40;;;;;;;;;;5064827;28;20190;-82
2022/04/13 04:04:30;;;;;;;5.47;3.15;;;;;;;;;;5077003;28;21508;-83
2022/04/13 04:06:56;;;;;;;3.80;3.37;;;;;;;;;;5042283;28;20369;-83
2022/04/13 04:09:22;;;;;;;5.53;2.60;;;;;;;;;;5074078;28;20486;-83
2022/04/13 04:11:48;;;;;;;7.43;3.40;;;;;;;;;;5044899;28;20178;-82
2022/04/13 04:14:14;;;;;;;4.70;2.80;;;;;;;;;;5074250;28;20214;-82
2022/04/13 04:16:40;;;;;;;5.80;3.28;;;;;;;;;;5046364;28;20493;-82
2022/04/13 04:19:06;;;;;;;5.00;3.53;;;;;;;;;;5061369;28;20695;-82
2022/04/13 04:21:32;;;;;;;13.38;3.90;;;;;;;;;;5062138;28;20461;-82
2022/04/13 04:23:58;;;;;;;7.70;4.00;;;;;;;;;;5060808;28;20244;-81
2022/04/13 04:26:24;;;;;;;4.50;3.30;;;;;;;;;;5062635;28;20217;-81
2022/04/13 04:28:49;;;;;;;5.10;3.57;;;;;;;;;;5080336;28;20431;-80
2022/04/13 04:31:19;;;;;;;10.97;3.97;;;;;;;;;;5062373;28;20423;-80
2022/04/13 04:33:45;;;;;;;4.95;3.80;;;;;;;;;;5061341;28;20947;-80
2022/04/13 04:36:11;;;;;;;10.68;4.45;;;;;;;;;;5062240;28;20403;-80
2022/04/13 04:38:37;;;;;;;4.03;3.50;;;;;;;;;;5061896;28;20185;-81
2022/04/13 04:41:03;;;;;;;7.03;3.38;;;;;;;;;;5079201;28;21048;-80
2022/04/13 04:43:29;;;;;;;7.20;3.70;;;;;;;;;;5066128;28;20172;-80
2022/04/13 04:45:55;;;;;;;7.50;4.00;;;;;;;;;;5060864;28;20208;-81
2022/04/13 04:48:21;;;;;;;7.53;3.93;;;;;;;;;;5060253;28;20416;-79
2022/04/13 04:50:47;;;;;;;4.47;4.05;;;;;;;;;;5061736;28;20438;-79
2022/04/13 04:53:13;;;;;;;13.63;4.30;;;;;;;;;;5062144;28;20185;-80
2022/04/13 04:55:42;;;;;;;4.93;4.33;;;;;;;;;;5064766;28;20459;-81
2022/04/13 04:58:09;;;;;;;6.80;4.30;;;;;;;;;;5061819;28;20448;-81
2022/04/13 05:00:36;;;;;;;6.43;3.80;;;;;;;;;;5060341;28;20179;-82
2022/04/13 05:03:02;;;;;;;9.75;4.57;;;;;;;;;;5061074;28;20256;-82
2022/04/13 05:05:29;;;;;;;10.60;4.10;;;;;;;;;;5072458;28;20189;-83
2022/04/13 05:07:55;;;;;;;13.38;4.53;;;;;;;;;;5064178;28;20192;-82
2022/04/13 05:10:21;;;;;;;9.30;3.93;;;;;;;;;;5064206;28;20185;-82
2022/04/13 05:12:49;;;;;;;12.85;4.95;;;;;;;;;;5061998;28;20440;-82
2022/04/13 05:15:16;;;;;;;11.60;5.80;;;;;;;;;;5059454;28;20478;-83
2022/04/13 05:17:42;;;;;;;14.98;5.13;;;;;;;;;;5059986;28;20181;-81
2022/04/13 05:20:09;;;;;;;9.38;4.78;;;;;;;;;;5078436;28;20178;-84
2022/04/13 05:22:35;;;;;;;13.73;5.10;;;;;;;;;;5064210;28;20642;-83
2022/04/13 05:25:06;;;;;;;11.15;4.65;;;;;;;;;;5062698;28;20239;-83
2022/04/13 05:27:32;;;;;;;10.60;4.65;;;;;;;;;;5061055;28;20189;-86
2022/04/13 05:29:58;;;;;;;11.70;4.77;;;;;;;;;;5063380;28;20188;-86
2022/04/13 05:32:24;;;;;;;9.20;4.45;;;;;;;;;;5061074;28;20452;-83
2022/04/13 05:34:50;;;;;;;7.22;4.68;;;;;;;;;;5072368;28;20222;-83
2022/04/13 05:37:16;;;;;;;9.40;4.32;;;;;;;;;;5062960;28;20205;-84
2022/04/13 05:39:45;;;;;;;10.60;5.17;;;;;;;;;;5060076;28;20244;-85
2022/04/13 05:42:11;;;;;;;6.15;5.30;;;;;;;;;;5044557;28;20431;-83
2022/04/13 05:44:37;;;;;;;8.00;4.47;;;;;;;;;;5044849;28;20196;-83
2022/04/13 05:47:03;;;;;;;9.00;5.33;;;;;;;;;;5062387;28;20557;-84
2022/04/13 05:49:28;;;;;;;11.63;4.80;;;;;;;;;;5045749;28;20442;-82
2022/04/13 05:51:54;;;;;;;17.33;6.10;;;;;;;;;;5042621;28;20189;-81
2022/04/13 05:54:20;;;;;;;15.67;6.20;;;;;;;;;;5062750;28;20461;-82
2022/04/13 05:56:46;;;;;;;13.70;5.63;;;;;;;;;;5062212;28;20455;-82
2022/04/13 05:59:12;;;;;;;10.45;5.50;;;;;;;;;;5057325;28;20444;-83
2022/04/13 06:01:38;;;;;;;9.97;5.63;;;;;;;;;;5062372;28;20177;-83
2022/04/13 06:04:04;;;;;;;10.50;5.80;;;;;;;;;;5063085;28;20944;-83
2022/04/13 06:06:30;;;;;;;10.43;6.18;;;;;;;;;;5060144;28;20549;-83
2022/04/13 06:08:56;;;;;;;8.90;5.43;;;;;;;;;;5061113;28;20674;-84
2022/04/13 06:11:22;;;;;;;8.93;5.73;;;;;;;;;;5042082;28;20257;-83
2022/04/13 06:13:48;;;;;;;8.20;5.80;;;;;;;;;;5078242;28;20468;-84
2022/04/13 06:16:14;;;;;;;14.70;6.23;;;;;;;;;;5061835;28;20863;-83
2022/04/13 06:18:40;;;;;;;10.20;5.80;;;;;;;;;;5058824;28;20455;-83
2022/04/13 06:21:08;;;;;;;9.77;7.73;;;;;;;;;;5061189;28;20436;-83
2022/04/13 06:23:34;;;;;;;10.20;7.70;;;;;;;;;;5059807;28;20451;-83
2022/04/13 06:26:00;;;;;;;15.40;7.40;;;;;;;;;;5062292;28;20177;-83
2022/04/13 06:28:26;;;;;;;13.27;7.93;;;;;;;;;;5060486;28;20512;-83
2022/04/13 06:30:52;;;;;;;10.98;7.47;;;;;;;;;;5059112;28;20435;-83
2022/04/13 06:33:18;;;;;;;9.52;7.22;;;;;;;;;;5059878;28;20195;-83
2022/04/13 06:35:45;;;;;;;9.32;6.10;;;;;;;;;;5057153;28;20205;-82
2022/04/13 06:38:11;;;;;;;14.07;7.35;;;;;;;;;;5059430;28;20220;-82
2022/04/13 06:40:37;;;;;;;9.02;6.10;;;;;;;;;;5061672;28;20177;-82
2022/04/13 06:43:03;;;;;;;12.27;7.13;;;;;;;;;;5058618;28;20177;-81
2022/04/13 06:45:29;;;;;;;9.18;5.47;;;;;;;;;;5058394;28;20446;-82
2022/04/13 06:47:55;;;;;;;9.35;6.55;;;;;;;;;;5058443;28;20192;-82
2022/04/13 06:50:21;;;;;;;8.97;6.00;;;;;;;;;;5059715;28;20181;-81
2022/04/13 06:52:47;;;;;;;18.03;7.23;;;;;;;;;;5062927;28;20423;-81
2022/04/13 06:55:13;;;;;;;8.40;6.00;;;;;;;;;;5060719;28;20531;-80
2022/04/13 06:57:39;;;;;;;11.55;6.28;;;;;;;;;;5075139;28;20203;-82
2022/04/13 07:00:07;;;;;;;15.93;6.68;;;;;;;;;;5058946;28;20180;-84
2022/04/13 07:02:34;;;;;;;12.45;6.88;;;;;;;;;;5059980;28;20181;-82
2022/04/13 07:05:00;;;;;;;16.77;6.68;;;;;;;;;;5061489;28;20177;-82
2022/04/13 07:07:26;;;;;;;7.93;6.37;;;;;;;;;;5061754;28;20209;-82
2022/04/13 07:09:52;;;;;;;9.60;6.68;;;;;;;;;;5061004;28;20447;-83
2022/04/13 07:12:18;;;;;;;15.82;7.70;;;;;;;;;;5058776;28;20185;-83
2022/04/13 07:14:44;;;;;;;12.73;7.05;;;;;;;;;;5059909;28;20689;-84
2022/04/13 07:17:10;;;;;;;11.23;5.90;;;;;;;;;;5059455;28;20186;-83
2022/04/13 07:19:36;;;;;;;14.13;6.50;;;;;;;;;;5061566;28;20454;-85
2022/04/13 07:22:03;;;;;;;11.10;6.45;;;;;;;;;;5061905;28;20187;-84
2022/04/13 07:24:28;;;;;;;16.17;6.95;;;;;;;;;;5060030;28;20215;-84
2022/04/13 07:26:55;;;;;;;36.20;8.65;;;;;;;;;;5058579;28;20185;-83
2022/04/13 07:29:21;;;;;;;15.88;6.18;;;;;;;;;;5066109;28;20240;-83
2022/04/13 07:31:47;;;;;;;13.75;6.75;;;;;;;;;;5077670;28;20201;-84
2022/04/13 07:34:13;;;;;;;16.10;7.72;;;;;;;;;;5058543;28;20618;-85
2022/04/13 07:36:39;;;;;;;13.40;7.00;;;;;;;;;;5058926;28;20181;-85
2022/04/13 07:39:05;;;;;;;14.07;6.80;;;;;;;;;;5066750;28;20215;-84
2022/04/13 07:41:31;;;;;;;12.60;6.65;;;;;;;;;;5058815;28;20505;-85
2022/04/13 07:43:57;;;;;;;21.97;7.57;;;;;;;;;;5061306;28;20268;-86
2022/04/13 07:46:27;;;;;;;23.10;8.05;;;;;;;;;;5063299;28;20925;-83
2022/04/13 07:48:53;;;;;;;15.90;5.90;;;;;;;;;;5063354;28;20181;-86
2022/04/13 07:51:20;;;;;;;16.73;7.18;;;;;;;;;;5066608;28;20189;-84
2022/04/13 07:53:46;;;;;;;10.93;7.10;;;;;;;;;;5063640;28;20720;-86
2022/04/13 07:56:12;;;;;;;19.40;8.85;;;;;;;;;;5064587;28;20292;-87
2022/04/13 07:58:38;;;;;;;13.15;6.82;;;;;;;;;;5066373;28;20178;-87
2022/04/13 08:01:04;;;;;;;17.13;8.88;;;;;;;;;;5046402;28;20208;-88
2022/04/13 08:03:30;;;;;;;20.58;7.28;;;;;;;;;;5064909;28;20189;-84
2022/04/13 08:05:56;;;;;;;14.18;7.80;;;;;;;;;;5062928;28;20540;-83
2022/04/13 08:08:22;;;;;;;12.82;8.77;;;;;;;;;;5077971;28;20604;-79
2022/04/13 08:10:48;;;;;;;16.47;8.20;;;;;;;;;;5080645;28;20236;-83
2022/04/13 08:13:14;;;;;;;15.10;8.20;;;;;;;;;;5056069;28;20432;-84
2022/04/13 08:15:40;;;;;;;15.73;8.07;;;;;;;;;;5064553;28;20468;-84
2022/04/13 08:18:06;;;;;;;13.50;6.97;;;;;;;;;;5057815;28;20186;-84
2022/04/13 08:20:32;;;;;;;13.07;8.23;;;;;;;;;;5061371;28;20464;-81
2022/04/13 08:22:58;;;;;;;14.32;8.18;;;;;;;;;;5061304;28;20251;-81
2022/04/13 08:25:24;;;;;;;16.63;7.30;;;;;;;;;;5066598;28;20218;-80
2022/04/13 08:27:50;;;;;;;12.17;6.80;;;;;;;;;;5063540;28;20524;-81
2022/04/13 08:30:17;;;;;;;11.17;7.17;;;;;;;;;;5062342;28;20436;-80
2022/04/13 08:32:43;;;;;;;16.38;6.57;;;;;;;;;;5062225;28;20471;-81
2022/04/13 08:35:10;;;;;;;8.93;6.65;;;;;;;;;;5062744;28;20689;-80
2022/04/13 08:37:37;;;;;;;14.27;6.95;;;;;;;;;;5067224;28;20168;-80
2022/04/13 08:40:04;;;;;;;12.77;7.35;;;;;;;;;;5062420;28;20186;-80
2022/04/13 08:42:37;;;;;;;14.63;7.97;;;;;;;;;;5061724;28;20200;-80
2022/04/13 08:45:21;;;;;;;10.65;6.82;;;;;;;;;;5061659;28;20183;-81
2022/04/13 08:47:49;;;;;;;9.73;6.70;;;;;;;;;;5061414;28;20191;-84
2022/04/13 08:50:17;;;;;;;9.45;6.20;;;;;;;;;;5061640;28;20201;-82
2022/04/13 08:52:47;;;;;;;13.48;6.88;;;;;;;;;;5065531;28;20198;-81
2022/04/13 08:55:16;;;;;;;12.05;6.95;;;;;;;;;;5062197;28;20268;-82
2022/04/13 08:57:49;;;;;;;13.73;7.47;;;;;;;;;;5061514;28;20583;-83
2022/04/13 09:00:16;;;;;;;14.77;6.15;;;;;;;;;;5060763;28;20177;-82
2022/04/13 09:02:45;;;;;;;12.10;7.68;;;;;;;;;;5063343;28;20220;-82
2022/04/13 09:05:14;;;;;;;12.55;8.05;;;;;;;;;;5062397;28;20212;-79
2022/04/13 09:07:41;;;;;;;12.07;6.85;;;;;;;;;;5059070;28;20176;-81
2022/04/13 09:10:10;;;;;;;7.78;6.90;;;;;;;;;;5060384;28;20183;-82
2022/04/13 09:12:40;;;;;;;9.07;6.63;;;;;;;;;;5059235;28;20558;-82
2022/04/13 09:15:06;;;;;;;15.82;9.15;;;;;;;;;;5058666;28;20456;-81
2022/04/13 09:17:32;;;;;;;7.93;6.75;;;;;;;;;;5059550;28;20221;-81
2022/04/13 09:20:00;;;;;;;13.70;7.00;;;;;;;;;;5062957;28;20179;-80
2022/04/13 09:22:26;;;;;;;9.82;6.75;;;;;;;;;;5062036;28;20410;-81
2022/04/13 09:24:53;;;;;;;13.75;6.25;;;;;;;;;;5059392;28;20192;-80
2022/04/13 09:27:20;;;;;;;9.55;5.50;;;;;;;;;;5067014;28;20192;-81
2022/04/13 09:29:47;;;;;;;14.13;6.25;;;;;;;;;;5059832;28;20191;-81
2022/04/13 09:32:13;;;;;;;9.90;7.65;;;;;;;;;;5062264;28;20188;-81
2022/04/13 09:34:39;;;;;;;10.50;6.80;;;;;;;;;;5062399;28;20219;-81
2022/04/13 09:37:06;;;;;;;7.60;5.18;;;;;;;;;;5060406;28;20187;-82
2022/04/13 09:39:33;;;;;;;8.02;5.65;;;;;;;;;;5059343;28;20188;-81
2022/04/13 09:42:03;;;;;;;10.32;5.40;;;;;;;;;;5058312;28;20195;-81
2022/04/13 09:44:30;;;;;;;7.70;5.10;;;;;;;;;;5076275;28;20192;-81
2022/04/13 09:47:16;;;;;;;8.75;6.07;;;;;;;;;;5056287;28;20179;-82
2022/04/13 09:49:46;;;;;;;11.40;6.00;;;;;;;;;;5055799;28;20175;-81
2022/04/13 09:52:15;;;;;;;6.70;5.18;;;;;;;;;;5055053;28;20245;-81
2022/04/13 09:54:48;;;;;;;8.50;5.60;;;;;;;;;;5056368;28;20215;-81
2022/04/13 09:57:24;;;;;;;11.60;6.68;;;;;;;;;;5061169;28;20185;-81
2022/04/13 09:59:57;;;;;;;7.72;5.25;;;;;;;;;;5045603;28;20200;-81
2022/04/13 10:02:38;;;;;;;9.13;5.38;;;;;;;;;;5062530;28;20308;-81
2022/04/13 10:05:04;;;;;;;9.55;5.45;;;;;;;;;;5061987;28;20189;-81
2022/04/13 10:07:30;;;;;;;9.55;5.25;;;;;;;;;;5071439;28;20184;-81
2022/04/13 10:09:56;;;;;;;6.18;4.78;;;;;;;;;;5059356;28;20193;-81
2022/04/13 10:12:23;;;;;;;8.43;4.88;;;;;;;;;;5074403;28;20189;-80
2022/04/13 10:14:49;;;;;;;6.80;4.65;;;;;;;;;;5059598;28;20235;-80
2022/04/13 10:17:16;;;;;;;7.10;4.60;;;;;;;;;;5059666;28;20175;-81
2022/04/13 10:19:53;;;;;;;4.68;3.90;;;;;;;;;;5059612;28;20501;-80
2022/04/13 10:22:18;;;;;;;5.65;4.47;;;;;;;;;;5041211;28;20230;-80
2022/04/13 10:24:44;;;;;;;7.97;4.40;;;;;;;;;;5056993;28;20216;-80
2022/04/13 10:27:18;;;;;;;6.10;3.40;;;;;;;;;;5059991;28;20937;-80
2022/04/13 10:29:44;;;;;;;10.35;3.83;;;;;;;;;;5059335;28;20510;-80
2022/04/13 10:32:24;;;;;;;5.68;4.10;;;;;;;;;;5075481;28;20196;-80
2022/04/13 10:34:51;;;;;;;4.43;3.72;;;;;;;;;;5058951;28;20205;-80
2022/04/13 10:37:18;;;;;;;5.03;4.00;;;;;;;;;;5060353;28;20165;-80
2022/04/13 10:39:48;;;;;;;6.40;3.30;;;;;;;;;;5057489;28;20535;-80
2022/04/13 10:42:15;;;;;;;7.57;3.10;;;;;;;;;;5059056;28;20187;-80
2022/04/13 10:44:44;;;;;;;3.65;2.50;;;;;;;;;;5059537;28;20191;-78
2022/04/13 10:47:11;;;;;;;4.63;2.90;;;;;;;;;;5060636;28;20215;-79
2022/04/13 10:49:47;;;;;;;3.17;2.47;;;;;;;;;;5062653;28;20295;-79
2022/04/13 10:52:33;;;;;;;3.45;1.90;;;;;;;;;;5059390;28;20181;-79
2022/04/13 10:55:07;;;;;;;2.38;2.17;;;;;;;;;;5060386;28;20211;-79
2022/04/13 10:57:36;;;;;;;2.38;2.17;;;;;;;;;;5059399;28;20177;-79
2022/04/13 11:00:03;;;;;;;3.13;2.65;;;;;;;;;;5057845;28;20192;-79
2022/04/13 11:02:29;;;;;;;3.55;2.50;;;;;;;;;;5074130;28;20188;-79
2022/04/13 11:04:56;;;;;;;4.85;2.10;;;;;;;;;;5076571;28;20176;-79
2022/04/13 11:07:23;;;;;;;3.45;2.83;;;;;;;;;;5061683;28;20184;-79
2022/04/13 11:09:51;;;;;;;5.35;2.30;;;;;;;;;;5060630;28;20199;-79
2022/04/13 11:12:17;;;;;;;2.67;2.30;;;;;;;;;;5069128;28;20230;-80
2022/04/13 11:14:51;;;;;;;5.43;2.55;;;;;;;;;;5039848;28;20236;-79
2022/04/13 11:17:16;;;;;;;6.55;2.80;;;;;;;;;;5059108;28;20637;-80
2022/04/13 11:19:43;;;;;;;4.73;2.50;;;;;;;;;;5071847;28;20184;-79
2022/04/13 11:22:10;;;;;;;6.03;3.60;;;;;;;;;;5059618;28;20427;-79
2022/04/13 11:24:36;;;;;;;4.57;3.08;;;;;;;;;;5061400;28;20185;-79
2022/04/13 11:27:06;;;;;;;2.67;2.47;;;;;;;;;;5065551;28;20176;-79
2022/04/13 11:29:33;;;;;;;3.97;2.60;;;;;;;;;;5070314;28;20444;-79
2022/04/13 11:32:02;;;;;;;2.53;2.30;;;;;;;;;;5066652;28;20661;-79
2022/04/13 11:34:32;;;;;;;2.28;2.08;;;;;;;;;;5062770;28;20503;-79
2022/04/13 11:37:01;;;;;;;2.83;2.38;;;;;;;;;;5060882;28;20180;-79
2022/04/13 11:39:43;;;;;;;2.63;2.42;;;;;;;;;;5061586;28;20372;-79
2022/04/13 11:42:18;;;;;;;2.15;1.50;;;;;;;;;;5060983;28;20192;-79
2022/04/13 11:44:51;;;;;;;2.10;1.52;;;;;;;;;;5063011;28;20215;-79
2022/04/13 11:47:17;;;;;;;2.50;2.10;;;;;;;;;;5029262;28;20195;-78
2022/04/13 11:50:04;;;;;;;2.05;1.85;;;;;;;;;;5081882;28;20181;-78
2022/04/13 11:52:40;;;;;;;2.95;2.05;;;;;;;;;;5063346;28;21246;-78
2022/04/13 11:55:26;;;;;;;3.10;2.40;;;;;;;;;;5056949;28;20220;-79
2022/04/13 11:58:04;;;;;;;2.80;1.85;;;;;;;;;;5064841;28;20214;-78
2022/04/13 12:00:40;;;;;;;2.55;2.10;;;;;;;;;;5072151;28;20188;-79
2022/04/13 12:03:07;;;;;;;4.90;1.80;;;;;;;;;;5083092;28;20177;-79
2022/04/13 12:05:33;;;;;;;4.32;1.90;;;;;;;;;;5059596;28;20232;-79
2022/04/13 12:08:00;;;;;;;5.07;2.13;;;;;;;;;;5067492;28;20181;-78
2022/04/13 12:10:26;;;;;;;2.05;1.85;;;;;;;;;;5062990;28;20176;-78
2022/04/13 12:12:52;;;;;;;3.50;2.53;;;;;;;;;;5060869;28;20223;-78
2022/04/13 12:15:19;;;;;;;2.83;2.55;;;;;;;;;;5061590;28;20489;-78
2022/04/13 12:17:45;;;;;;;3.50;3.10;;;;;;;;;;5061969;28;20212;-78
2022/04/13 12:20:33;;;;;;;2.50;2.30;;;;;;;;;;5062124;28;20269;-78
2022/04/13 12:22:58;;;;;;;1.85;1.60;;;;;;;;;;5060299;28;20176;-78
2022/04/13 12:25:25;;;;;;;2.20;2.03;;;;;;;;;;5062174;28;20598;-78
2022/04/13 12:28:19;;;;;;;3.75;1.90;;;;;;;;;;5060389;28;20791;-78
2022/04/13 12:30:53;;;;;;;2.30;2.13;;;;;;;;;;5043793;28;20197;-77
2022/04/13 12:33:23;;;;;;;3.53;1.98;;;;;;;;;;5059996;28;20260;-78
2022/04/13 12:36:01;;;;;;;3.72;3.42;;;;;;;;;;5066515;28;20197;-77
2022/04/13 12:38:33;;;;;;;1.60;1.50;;;;;;;;;;5062463;28;20265;-78
2022/04/13 12:41:08;;;;;;;1.92;1.40;;;;;;;;;;5044317;28;20420;-78
2022/04/13 12:43:34;;;;;;;3.72;2.03;;;;;;;;;;5063381;28;20176;-78
2022/04/13 12:46:12;;;;;;;2.15;1.95;;;;;;;;;;5061427;28;20204;-78
2022/04/13 12:48:39;;;;;;;3.53;1.77;;;;;;;;;;5058704;28;20193;-80
2022/04/13 12:51:06;;;;;;;3.50;1.98;;;;;;;;;;5059706;28;20181;-80
2022/04/13 12:53:48;;;;;;;2.65;2.38;;;;;;;;;;5059364;28;20284;-80
2022/04/13 12:56:15;;;;;;;5.90;4.28;;;;;;;;;;5045917;28;20264;-80
2022/04/13 12:58:41;;;;;;;2.78;1.85;;;;;;;;;;5064193;28;20311;-81
2022/04/13 13:01:10;;;;;;;2.78;2.10;;;;;;;;;;5059602;28;20178;-82
2022/04/13 13:03:37;;;;;;;3.17;1.63;;;;;;;;;;5058764;28;20177;-81
2022/04/13 13:06:10;;;;;;;2.22;1.90;;;;;;;;;;5060944;28;20185;-82
2022/04/13 13:08:37;;;;;;;4.80;2.03;;;;;;;;;;5061434;28;20954;-82
2022/04/13 13:11:10;;;;;;;2.40;1.65;;;;;;;;;;5046149;28;20236;-82
2022/04/13 13:13:37;;;;;;;2.90;1.80;;;;;;;;;;5064286;28;20603;-82
2022/04/13 13:16:03;;;;;;;2.38;1.95;;;;;;;;;;5060708;28;20212;-82
2022/04/13 13:18:29;;;;;;;1.45;1.30;;;;;;;;;;5059272;28;20345;-83
2022/04/13 13:20:59;;;;;;;1.70;1.60;;;;;;;;;;5060830;28;20662;-84
2022/04/13 13:23:26;;;;;;;2.83;1.98;;;;;;;;;;5060615;28;20531;-84
2022/04/13 13:25:52;;;;;;;4.78;1.90;;;;;;;;;;5078721;28;20177;-83
2022/04/13 13:28:22;;;;;;;2.15;1.80;;;;;;;;;;5062338;28;20247;-83
2022/04/13 13:30:50;;;;;;;2.20;1.90;;;;;;;;;;5063070;28;20177;-84
2022/04/13 13:33:16;;;;;;;3.05;1.40;;;;;;;;;;5058595;28;20204;-84
2022/04/13 13:35:42;;;;;;;2.45;1.75;;;;;;;;;;5060533;28;20666;-85
2022/04/13 13:38:12;;;;;;;4.75;1.65;;;;;;;;;;5061248;28;20192;-84
2022/04/13 13:40:41;;;;;;;2.67;2.10;;;;;;;;;;5063395;28;20188;-85
2022/04/13 13:43:08;;;;;;;4.78;1.90;;;;;;;;;;5058508;28;20232;-85
2022/04/13 13:45:44;;;;;;;2.63;1.92;;;;;;;;;;5061058;28;20547;-83
2022/04/13 13:48:11;;;;;;;1.75;1.60;;;;;;;;;;5060518;28;20192;-86
2022/04/13 13:50:40;;;;;;;1.60;1.50;;;;;;;;;;5062150;28;20474;-86
2022/04/13 13:53:07;;;;;;;7.20;2.80;;;;;;;;;;5076742;28;20202;-86
2022/04/13 13:55:35;;;;;;;3.10;1.65;;;;;;;;;;5061684;28;20202;-86
2022/04/13 13:58:01;;;;;;;3.42;2.45;;;;;;;;;;5060885;28;20182;-86
2022/04/13 14:00:37;;;;;;;2.15;2.00;;;;;;;;;;5062074;28;20190;-86
2022/04/13 14:03:04;;;;;;;2.58;1.55;;;;;;;;;;5061645;28;20200;-87
2022/04/13 14:05:30;;;;;;;16.23;5.63;;;;;;;;;;5058488;28;20508;-86
2022/04/13 14:07:58;;;;;;;3.35;2.42;;;;;;;;;;5062752;28;20237;-86
2022/04/13 14:10:24;;;;;;;6.20;2.45;;;;;;;;;;5060626;28;20192;-86
2022/04/13 14:12:51;;;;;;;2.85;1.08;;;;;;;;;;5059563;28;20196;-86
2022/04/13 14:15:17;;;;;;;1.33;1.23;;;;;;;;;;5058702;28;20224;-85
2022/04/13 14:17:44;;;;;;;1.83;1.60;;;;;;;;;;5058911;28;20182;-87
2022/04/13 14:20:10;;;;;;;1.70;1.60;;;;;;;;;;5060014;28;20186;-88
2022/04/13 14:22:37;;;;;;;1.90;1.50;;;;;;;;;;5062015;28;20219;-87
2022/04/13 14:25:04;;;;;;;2.90;1.50;;;;;;;;;;5059568;28;20245;-87
2022/04/13 14:27:30;;;;;;;1.65;1.55;;;;;;;;;;5059739;28;20200;-86
2022/04/13 14:29:57;;;;;;;3.15;1.23;;;;;;;;;;5058107;28;20217;-86
2022/04/13 14:32:24;;;;;;;1.35;1.25;;;;;;;;;;5075053;28;20327;-88
2022/04/13 14:34:50;;;;;;;2.08;1.38;;;;;;;;;;5077859;28;20196;-86
2022/04/13 14:37:16;;;;;;;1.70;1.25;;;;;;;;;;5060633;28;20212;-86
2022/04/13 14:39:42;;;;;;;2.10;1.45;;;;;;;;;;5059315;28;20308;-86
2022/04/13 14:42:11;;;;;;;1.20;1.03;;;;;;;;;;5060308;28;20182;-85